Hansa Rendsburg — A8CF4 — position and weather

sailwx.info

Track history (hours):
 
Tides and Currents Weather Stations Pressure Air Temp Water Temp Dewpoint Dewpoint Depression Visibility Wind Speed Wind Dir Waves Ship Positions

Hansa Rendsburg

Last reported at 2015-Jul-27 22:17 UTC. Time now 2015-Jul-29 18:01 UTC.
Position N 37°48' E 122°32'.

Type: Ship (hazmat cat A). MMSI: 636090636.

Date/timePositionNaut miles runAvg speedWind from/ knotsBaromVisibWave heightAir tempDewpointWater temp
2015-Jul-27 22:17N 37°48' E 122°32'3517.1
2015-Jul-27 20:15N 38°06' E 121°54'1217.7
2015-Jul-27 19:33N 38°11' E 121°40'1917.8
2015-Jul-27 18:30N 38°21' E 121°20'3816.6
2015-Jul-27 16:13N 38°35' E 120°35'1217.3
2015-Jul-27 15:32N 38°37' E 120°20'1716.7
2015-Jul-27 14:32N 38°39' E 119°59'8616.0
2015-Jul-27 09:10N 38°52' E 118°10'710.9
2015-Jul-27 08:30N 38°56' E 118°02'9 9.0
2015-Jul-27 07:30N 38°58' E 117°51'4 3.7
2015-Jul-27 06:33N 38°60' E 117°47'0 0.0
2015-Jul-27 05:30N 38°60' E 117°47'0 0.0
2015-Jul-27 04:24N 38°60' E 117°47'0 0.0
2015-Jul-27 03:30N 38°60' E 117°47'0 0.0
2015-Jul-27 02:24N 38°60' E 117°47'0 0.0
2015-Jul-27 01:30N 38°60' E 117°47'0 0.0
2015-Jul-27 00:30N 38°60' E 117°47'0 0.0
2015-Jul-26 23:30N 38°60' E 117°47'0 0.0
2015-Jul-26 22:30N 38°60' E 117°47'0 0.0
2015-Jul-26 21:24N 38°60' E 117°47'0 0.0
2015-Jul-26 20:30N 38°60' E 117°47'0 0.0
2015-Jul-26 19:30N 38°60' E 117°47'0 0.0
2015-Jul-26 18:30N 38°60' E 117°47'0 0.0
2015-Jul-26 17:30N 38°60' E 117°47'0 0.0
2015-Jul-26 16:30N 38°60' E 117°47'0 0.0
2015-Jul-26 15:30N 38°60' E 117°47'0 0.0
2015-Jul-26 14:24N 38°60' E 117°47'0 0.0
2015-Jul-26 13:30N 38°60' E 117°47'0 0.0
2015-Jul-26 12:30N 38°60' E 117°47'0 0.0
2015-Jul-26 11:30N 38°60' E 117°47'0 0.1
2015-Jul-26 10:33N 38°60' E 117°47'0 0.0
2015-Jul-26 09:33N 38°60' E 117°47'0 0.0
2015-Jul-26 08:33N 38°60' E 117°47'0 0.0
2015-Jul-26 07:33N 38°60' E 117°47'5 4.5
2015-Jul-26 06:33N 38°57' E 117°52'10 9.4
2015-Jul-26 05:32N 38°56' E 118°04'5312.5
2015-Jul-26 01:19N 38°47' E 119°11'11514.0
2015-Jul-25 17:05N 37°57' E 121°24'815.6
2015-Jul-25 16:33N 37°50' E 121°27'1413.9
2015-Jul-25 15:34N 37°36' E 121°27'3 3.2
2015-Jul-25 14:31N 37°35' E 121°23'0 0.0
2015-Jul-25 13:31N 37°35' E 121°23'0 0.0
2015-Jul-25 12:31N 37°35' E 121°23'0 0.0
2015-Jul-25 11:31N 37°35' E 121°23'0 0.0
2015-Jul-25 10:31N 37°35' E 121°23'0 0.0
2015-Jul-25 09:31N 37°35' E 121°23'0 0.0
2015-Jul-25 08:31N 37°35' E 121°23'0 0.0
2015-Jul-25 07:31N 37°35' E 121°23'0 0.0
2015-Jul-25 06:34N 37°35' E 121°23'6 5.9
2015-Jul-25 05:34N 37°38' E 121°29'7 7.3
2015-Jul-25 04:33N 37°39' E 121°38'1616.0
2015-Jul-25 03:34N 37°42' E 121°58'1717.4
2015-Jul-25 02:34N 37°42' E 122°20'  
2015-Jul-19 06:33N 39°00' E 117°47'0 0.0
2015-Jul-19 05:33N 39°00' E 117°47'0 0.0
2015-Jul-19 04:33N 39°00' E 117°47'0 0.0
2015-Jul-19 00:33N 39°00' E 117°47'0 0.0
2015-Jul-18 23:33N 39°00' E 117°47'0 0.0
2015-Jul-18 22:32N 39°00' E 117°47'0 0.0
2015-Jul-18 21:33N 39°00' E 117°47'0 0.0
2015-Jul-18 20:33N 39°00' E 117°47'1 0.5
2015-Jul-18 19:33N 38°60' E 117°47'1111.1
2015-Jul-18 18:32N 38°56' E 118°01'5 4.1
2015-Jul-18 17:17N 38°56' E 118°07'2011.4
2015-Jul-18 15:33N 38°50' E 118°32'4012.6
2015-Jul-18 12:21N 38°46' E 119°24'9412.1
2015-Jul-18 04:32N 38°12' E 121°16'3015.0
2015-Jul-18 02:33N 37°44' E 121°28'10 9.7
2015-Jul-18 01:33N 37°35' E 121°23'0 0.3
2015-Jul-18 00:34N 37°35' E 121°23'0 0.0
2015-Jul-17 23:33N 37°35' E 121°23'0 0.0
2015-Jul-17 22:33N 37°35' E 121°23'  
Track history (hours):
 
Tides and Currents Weather Stations Pressure Air Temp Water Temp Dewpoint Dewpoint Depression Visibility Wind Speed Wind Dir Waves Ship Positions

Hansa Rendsburg

Last reported at 2015-Jul-27 22:17 UTC. Time now 2015-Jul-29 18:01 UTC.
Position N 37°48' E 122°32'.

Type: Ship (hazmat cat A). MMSI: 636090636.

Date/timePositionNaut miles runAvg speedWind from/ knotsBaromVisibWave heightAir tempDewpointWater temp
2015-Jul-27 22:17N 37°48' E 122°32'3517.1
2015-Jul-27 20:15N 38°06' E 121°54'1217.7
2015-Jul-27 19:33N 38°11' E 121°40'1917.8
2015-Jul-27 18:30N 38°21' E 121°20'3816.6
2015-Jul-27 16:13N 38°35' E 120°35'1217.3
2015-Jul-27 15:32N 38°37' E 120°20'1716.7
2015-Jul-27 14:32N 38°39' E 119°59'8616.0
2015-Jul-27 09:10N 38°52' E 118°10'710.9
2015-Jul-27 08:30N 38°56' E 118°02'9 9.0
2015-Jul-27 07:30N 38°58' E 117°51'4 3.7
2015-Jul-27 06:33N 38°60' E 117°47'0 0.0
2015-Jul-27 05:30N 38°60' E 117°47'0 0.0
2015-Jul-27 04:24N 38°60' E 117°47'0 0.0
2015-Jul-27 03:30N 38°60' E 117°47'0 0.0
2015-Jul-27 02:24N 38°60' E 117°47'0 0.0
2015-Jul-27 01:30N 38°60' E 117°47'0 0.0
2015-Jul-27 00:30N 38°60' E 117°47'0 0.0
2015-Jul-26 23:30N 38°60' E 117°47'0 0.0
2015-Jul-26 22:30N 38°60' E 117°47'0 0.0
2015-Jul-26 21:24N 38°60' E 117°47'0 0.0
2015-Jul-26 20:30N 38°60' E 117°47'0 0.0
2015-Jul-26 19:30N 38°60' E 117°47'0 0.0
2015-Jul-26 18:30N 38°60' E 117°47'0 0.0
2015-Jul-26 17:30N 38°60' E 117°47'0 0.0
2015-Jul-26 16:30N 38°60' E 117°47'0 0.0
2015-Jul-26 15:30N 38°60' E 117°47'0 0.0
2015-Jul-26 14:24N 38°60' E 117°47'0 0.0
2015-Jul-26 13:30N 38°60' E 117°47'0 0.0
2015-Jul-26 12:30N 38°60' E 117°47'0 0.0
2015-Jul-26 11:30N 38°60' E 117°47'0 0.1
2015-Jul-26 10:33N 38°60' E 117°47'0 0.0
2015-Jul-26 09:33N 38°60' E 117°47'0 0.0
2015-Jul-26 08:33N 38°60' E 117°47'0 0.0
2015-Jul-26 07:33N 38°60' E 117°47'5 4.5
2015-Jul-26 06:33N 38°57' E 117°52'10 9.4
2015-Jul-26 05:32N 38°56' E 118°04'5312.5
2015-Jul-26 01:19N 38°47' E 119°11'11514.0
2015-Jul-25 17:05N 37°57' E 121°24'815.6
2015-Jul-25 16:33N 37°50' E 121°27'1413.9
2015-Jul-25 15:34N 37°36' E 121°27'3 3.2
2015-Jul-25 14:31N 37°35' E 121°23'0 0.0
2015-Jul-25 13:31N 37°35' E 121°23'0 0.0
2015-Jul-25 12:31N 37°35' E 121°23'0 0.0
2015-Jul-25 11:31N 37°35' E 121°23'0 0.0
2015-Jul-25 10:31N 37°35' E 121°23'0 0.0
2015-Jul-25 09:31N 37°35' E 121°23'0 0.0
2015-Jul-25 08:31N 37°35' E 121°23'0 0.0
2015-Jul-25 07:31N 37°35' E 121°23'0 0.0
2015-Jul-25 06:34N 37°35' E 121°23'6 5.9
2015-Jul-25 05:34N 37°38' E 121°29'7 7.3
2015-Jul-25 04:33N 37°39' E 121°38'1616.0
2015-Jul-25 03:34N 37°42' E 121°58'1717.4
2015-Jul-25 02:34N 37°42' E 122°20'  
2015-Jul-19 06:33N 39°00' E 117°47'0 0.0
2015-Jul-19 05:33N 39°00' E 117°47'0 0.0
2015-Jul-19 04:33N 39°00' E 117°47'0 0.0
2015-Jul-19 00:33N 39°00' E 117°47'0 0.0
2015-Jul-18 23:33N 39°00' E 117°47'0 0.0
2015-Jul-18 22:32N 39°00' E 117°47'0 0.0
2015-Jul-18 21:33N 39°00' E 117°47'0 0.0
2015-Jul-18 20:33N 39°00' E 117°47'1 0.5
2015-Jul-18 19:33N 38°60' E 117°47'1111.1
2015-Jul-18 18:32N 38°56' E 118°01'5 4.1
2015-Jul-18 17:17N 38°56' E 118°07'2011.4
2015-Jul-18 15:33N 38°50' E 118°32'4012.6
2015-Jul-18 12:21N 38°46' E 119°24'9412.1
2015-Jul-18 04:32N 38°12' E 121°16'3015.0
2015-Jul-18 02:33N 37°44' E 121°28'10 9.7
2015-Jul-18 01:33N 37°35' E 121°23'0 0.3
2015-Jul-18 00:34N 37°35' E 121°23'0 0.0
2015-Jul-17 23:33N 37°35' E 121°23'0 0.0
2015-Jul-17 22:33N 37°35' E 121°23'  

Dump ship's entire track history